Time;durP1;ratioP1;P1;durP2;ratioP2;P2;SDS_P1;SDS_P2;PMS_P1;PMS_P2;Temp;Humidity;BMP_temperature;BMP_pressure;BME280_temperature;BME280_humidity;BME280_pressure;Samples;Min_cycle;Max_cycle;Signal;HPM_P1;HPM_P2
2021/11/06 00:00:07;;;;;;;;;;;;;;;5.67;89.36;100879.69;4917510;29;19978;-82
2021/11/06 00:02:32;;;;;;;;;;;;;;;5.72;89.45;100885.78;4918338;29;19920;-82
2021/11/06 00:04:58;;;;;;;;;;;;;;;5.74;89.26;100881.38;4918833;29;19983;-83
2021/11/06 00:07:23;;;;;;;;;;;;;;;5.72;89.28;100877.91;4916759;29;20299;-82
2021/11/06 00:09:48;;;;;;;;;;;;;;;5.73;89.18;100882.28;4916958;29;20282;-82
2021/11/06 00:12:14;;;;;;;;;;;;;;;5.77;89.10;100876.97;4918644;29;20009;-82
2021/11/06 00:14:39;;;;;;;;;;;;;;;5.79;88.95;100877.84;4916724;29;20022;-82
2021/11/06 00:17:05;;;;;;;;;;;;;;;5.78;88.78;100878.72;4918431;29;19919;-83
2021/11/06 00:19:30;;;;;;;;;;;;;;;5.79;88.58;100879.59;4917204;29;20076;-83
2021/11/06 00:21:56;;;;;;;;;;;;;;;5.84;88.59;100880.47;4915798;29;19974;-82
2021/11/06 00:24:21;;;;;;;;;;;;;;;5.85;88.46;100874.31;4918255;29;20376;-83
2021/11/06 00:26:52;;;;;;;;;;;;;;;5.87;88.28;100876.91;4916119;29;19923;-82
2021/11/06 00:29:18;;;;;;;;;;;;;;;5.90;88.50;100884.78;4915533;29;19923;-83
2021/11/06 00:31:43;;;;;;;;;;;;;;;5.88;88.44;100876.91;4917967;29;20004;-82
2021/11/06 00:34:08;;;;;;;;;;;;;;;5.89;88.29;100873.41;4917045;29;19938;-82
2021/11/06 00:36:34;;;;;;;;;;;;;;;5.91;88.35;100884.78;4918127;29;20469;-83
2021/11/06 00:38:59;;;;;;;;;;;;;;;5.95;88.42;100872.47;4916258;29;19958;-83
2021/11/06 00:41:24;;;;;;;;;;;;;;;5.97;88.22;100881.28;4916743;29;20359;-83
2021/11/06 00:43:50;;;;;;;;;;;;;;;5.97;88.22;100881.28;4915655;29;19959;-82
2021/11/06 00:46:15;;;;;;;;;;;;;;;6.02;88.36;100886.53;4917169;29;20299;-83
2021/11/06 00:48:40;;;;;;;;;;;;;;;6.02;88.33;100890.03;4916561;29;19926;-83
2021/11/06 00:51:07;;;;;;;;;;;;;;;6.04;88.45;100890.88;4915911;29;20476;-82
2021/11/06 00:53:32;;;;;;;;;;;;;;;6.09;88.70;100889.09;4912326;29;20337;-83
2021/11/06 00:55:57;;;;;;;;;;;;;;;6.18;88.99;100893.44;4914544;29;20034;-82
2021/11/06 00:58:23;;;;;;;;;;;;;;;6.25;89.14;100891.63;4915476;29;19923;-82
2021/11/06 01:00:48;;;;;;;;;;;;;;;6.30;89.38;100884.56;4916216;29;20013;-82
2021/11/06 01:03:13;;;;;;;;;;;;;;;6.32;89.77;100877.53;4916439;29;19916;-82
2021/11/06 01:05:39;;;;;;;;;;;;;;;6.36;90.23;100879.25;4917603;29;19920;-82
2021/11/06 01:08:04;;;;;;;;;;;;;;;6.34;90.25;100881.03;4916002;29;20372;-83
2021/11/06 01:10:29;;;;;;;;;;;;;;;6.33;90.33;100877.53;4916322;29;19981;-82
2021/11/06 01:12:55;;;;;;;;;;;;;;;6.30;90.34;100880.19;4917774;29;19923;-82
2021/11/06 01:15:20;;;;;;;;;;;;;;;6.24;89.99;100884.59;4913735;29;19923;-81
2021/11/06 01:17:46;;;;;;;;;;;;;;;6.11;89.71;100887.34;4915952;29;19919;-83
2021/11/06 01:20:11;;;;;;;;;;;;;;;5.95;89.04;100886.53;4917560;29;19919;-83
2021/11/06 01:22:37;;;;;;;;;;;;;;;5.77;88.63;100889.25;4917549;29;19919;-82
2021/11/06 01:25:03;;;;;;;;;;;;;;;5.63;87.94;100892.84;4916275;29;19992;-82
2021/11/06 01:27:29;;;;;;;;;;;;;;;5.48;88.27;100890.28;4916577;29;19927;-82
2021/11/06 01:29:54;;;;;;;;;;;;;;;5.40;89.29;100889.44;4914537;29;20380;-83
2021/11/06 01:32:20;;;;;;;;;;;;;;;5.38;91.14;100889.44;4916511;29;19962;-83
2021/11/06 01:34:45;;;;;;;;;;;;;;;5.42;92.82;100887.66;4916143;29;20364;-83
2021/11/06 01:37:10;;;;;;;;;;;;;;;5.51;95.18;100882.38;4917106;29;19923;-82
2021/11/06 01:39:36;;;;;;;;;;;;;;;5.62;97.91;100891.09;4917159;29;19923;-82
2021/11/06 01:42:01;;;;;;;;;;;;;;;5.79;100.00;100887.47;4916738;29;19926;-82
2021/11/06 01:44:28;;;;;;;;;;;;;;;6.12;100.00;100888.19;4914095;29;19927;-83
2021/11/06 01:46:54;;;;;;;;;;;;;;;6.19;100.00;100882.03;4915410;29;19923;-83
2021/11/06 01:49:20;;;;;;;;;;;;;;;6.34;100.00;100875.75;4914994;29;19923;-83
2021/11/06 01:51:47;;;;;;;;;;;;;;;6.44;100.00;100876.53;4915441;29;19930;-83
2021/11/06 01:54:12;;;;;;;;;;;;;;;6.52;100.00;100869.44;4914004;29;19923;-83
2021/11/06 01:56:37;;;;;;;;;;;;;;;6.56;100.00;100873.81;4914050;29;19930;-83
2021/11/06 01:59:04;;;;;;;;;;;;;;;6.60;100.00;100870.25;4914123;29;19927;-82
2021/11/06 02:01:29;;;;;;;;;;;;;;;6.65;100.00;100863.19;4914227;29;19969;-84
2021/11/06 02:03:55;;;;;;;;;;;;;;;6.71;100.00;100859.63;4916951;29;20430;-83
2021/11/06 02:06:20;;;;;;;;;;;;;;;6.76;100.00;100862.22;4915733;29;20010;-84
2021/11/06 02:08:45;;;;;;;;;;;;;;;6.79;100.00;100862.19;4911341;29;20394;-83
2021/11/06 02:11:10;;;;;;;;;;;;;;;6.84;100.00;100865.63;4915599;29;20018;-83
2021/11/06 02:13:36;;;;;;;;;;;;;;;6.87;100.00;100862.97;4915114;29;19927;-83
2021/11/06 02:16:02;;;;;;;;;;;;;;;6.89;100.00;100862.06;4915379;29;19919;-83
2021/11/06 02:18:27;;;;;;;;;;;;;;;6.92;100.00;100869.06;4916781;29;19923;-84
2021/11/06 02:21:06;;;;;;;;;;;;;;;6.96;100.00;100865.50;4916692;29;19947;-83
2021/11/06 02:23:40;;;;;;;;;;;;;;;7.00;100.00;100872.47;4916605;29;20399;-83
2021/11/06 02:26:07;;;;;;;;;;;;;;;7.03;100.00;100861.03;4914367;29;19923;-85
2021/11/06 02:28:33;;;;;;;;;;;;;;;7.04;100.00;100861.03;4912465;29;19923;-83
2021/11/06 02:30:58;;;;;;;;;;;;;;;7.06;100.00;100859.25;4914418;29;19927;-85
2021/11/06 03:20:07;;;;;;;;;;;;;;;7.39;100.00;100870.28;5143337;23;20419;-82
2021/11/06 03:22:32;;;;;;;;;;;;;;;7.42;100.00;100859.69;4888213;29;20025;-82
2021/11/06 03:24:58;;;;;;;;;;;;;;;7.42;100.00;100859.69;4888486;29;19923;-82
2021/11/06 03:27:24;;;;;;;;;;;;;;;7.42;100.00;100862.34;4887625;29;19926;-82
2021/11/06 03:29:49;;;;;;;;;;;;;;;7.43;100.00;100871.97;4870557;29;20300;-82
2021/11/06 03:32:14;;;;;;;;;;;;;;;7.45;100.00;100864.94;4887814;29;19923;-82
2021/11/06 03:34:40;;;;;;;;;;;;;;;7.46;100.00;100874.56;4885999;29;19924;-82
2021/11/06 03:37:05;;;;;;;;;;;;;;;7.48;100.00;100878.97;4887546;29;19923;-83
2021/11/06 03:39:31;;;;;;;;;;;;;;;7.50;100.00;100882.44;4886985;29;19926;-83
2021/11/06 03:41:56;;;;;;;;;;;;;;;7.66;100.00;100885.75;4870776;29;20010;-81
2021/11/06 03:44:21;;;;;;;;;;;;;;;7.68;100.00;100887.50;4887037;29;19947;-82
2021/11/06 03:46:47;;;;;;;;;;;;;;;7.69;100.00;100894.53;4887442;29;20368;-82
2021/11/06 03:49:12;;;;;;;;;;;;;;;7.69;100.00;100889.25;4869177;29;19920;-82
2021/11/06 03:51:37;;;;;;;;;;;;;;;7.66;100.00;100893.69;4887186;29;19951;-82
2021/11/06 03:54:03;;;;;;;;;;;;;;;6.24;100.00;100901.28;4871236;29;20455;-82
2021/11/06 03:56:28;;;;;;;;;;;;;;;5.13;100.00;100899.16;4887283;29;19919;-82
2021/11/06 03:58:54;;;;;;;;;;;;;;;4.67;100.00;100894.00;4887589;29;20359;-82
2021/11/06 04:01:19;;;;;;;;;;;;;;;4.34;100.00;100901.00;4887508;29;20026;-81
2021/11/06 04:03:45;;;;;;;;;;;;;;;4.14;100.00;100891.34;4886258;29;19923;-82
2021/11/06 04:06:11;;;;;;;;;;;;;;;4.00;100.00;100896.59;4887670;29;19944;-82
2021/11/06 04:08:36;;;;;;;;;;;;;;;3.75;99.58;100898.28;4886913;29;19920;-82
2021/11/06 04:11:01;;;;;;;;;;;;;;;3.70;99.90;100900.03;4887305;29;19919;-82
2021/11/06 04:13:27;;;;;;;;;;;;;;;3.59;98.62;100905.22;4887067;29;20413;-82
2021/11/06 04:15:52;;;;;;;;;;;;;;;3.47;98.69;100899.06;4886826;29;19919;-82
2021/11/06 04:18:17;;;;;;;;;;;;;;;3.42;98.05;100897.28;4885736;29;19920;-82
2021/11/06 04:20:43;;;;;;;;;;;;;;;3.35;98.06;100906.00;4887032;29;19982;-83
2021/11/06 04:23:08;;;;;;;;;;;;;;;3.30;97.45;100905.09;4887299;29;19924;-82
2021/11/06 04:25:33;;;;;;;;;;;;;;;3.23;96.82;100898.09;4886655;29;19920;-82
2021/11/06 04:27:59;;;;;;;;;;;;;;;3.13;97.01;100909.38;4886972;29;19931;-82
2021/11/06 04:30:25;;;;;;;;;;;;;;;3.04;96.13;100903.22;4886801;29;20379;-82
2021/11/06 04:32:50;;;;;;;;;;;;;;;3.01;95.71;100903.19;4886920;29;19920;-81
2021/11/06 04:35:15;;;;;;;;;;;;;;;2.90;95.63;100904.88;4887947;29;20383;-81
2021/11/06 04:37:40;;;;;;;;;;;;;;;2.91;94.83;100906.63;4890262;29;20275;-81
2021/11/06 04:40:07;;;;;;;;;;;;;;;2.76;94.79;100907.41;4890634;29;19920;-82
2021/11/06 04:42:32;;;;;;;;;;;;;;;2.98;97.79;100908.41;4890271;29;19916;-81
2021/11/06 04:44:57;;;;;;;;;;;;;;;2.99;98.69;100909.31;4890493;29;19930;-81
2021/11/06 04:47:22;;;;;;;;;;;;;;;2.91;98.62;100917.09;4890305;29;20364;-81
2021/11/06 04:49:48;;;;;;;;;;;;;;;2.80;98.17;100914.41;4888452;29;19924;-81
2021/11/06 04:52:13;;;;;;;;;;;;;;;2.72;97.97;100924.81;4890170;29;19919;-81
2021/11/06 04:54:39;;;;;;;;;;;;;;;2.64;97.25;100917.78;4890284;29;19923;-81
2021/11/06 04:57:04;;;;;;;;;;;;;;;2.56;96.58;100928.19;4890201;29;20360;-81
2021/11/06 04:59:29;;;;;;;;;;;;;;;2.52;96.79;100934.25;4889818;29;19920;-81
2021/11/06 05:01:55;;;;;;;;;;;;;;;2.44;96.03;100931.59;4890080;29;19925;-81
2021/11/06 05:04:20;;;;;;;;;;;;;;;2.38;96.08;100930.63;4872015;29;19943;-81
2021/11/06 05:06:45;;;;;;;;;;;;;;;2.36;95.34;100928.00;4889621;29;19920;-81
2021/11/06 05:09:10;;;;;;;;;;;;;;;2.26;94.44;100941.88;4903201;29;19916;-81
2021/11/06 05:11:36;;;;;;;;;;;;;;;2.20;94.04;100928.75;4889589;29;19920;-81
2021/11/06 05:14:01;;;;;;;;;;;;;;;2.06;93.49;100939.06;4889630;29;20267;-81
2021/11/06 05:16:26;;;;;;;;;;;;;;;2.04;93.04;100930.31;4888404;29;20286;-81
2021/11/06 05:18:54;;;;;;;;;;;;;;;1.97;92.36;100930.25;4888237;29;19928;-81
2021/11/06 05:21:21;;;;;;;;;;;;;;;1.93;92.49;100927.59;4889855;29;19972;-81
2021/11/06 05:23:46;;;;;;;;;;;;;;;1.86;92.01;100937.09;4889431;29;19920;-81
2021/11/06 05:26:11;;;;;;;;;;;;;;;1.79;91.37;100937.91;4889401;29;19952;-81
2021/11/06 05:28:36;;;;;;;;;;;;;;;1.72;90.91;100930.84;4889447;29;20014;-81
2021/11/06 05:31:02;;;;;;;;;;;;;;;1.61;90.32;100935.94;4889857;29;19927;-82
2021/11/06 05:33:27;;;;;;;;;;;;;;;1.66;90.59;100943.84;4888116;29;20251;-81
2021/11/06 05:35:52;;;;;;;;;;;;;;;1.94;91.87;100951.13;4889128;29;19927;-82
2021/11/06 05:38:18;;;;;;;;;;;;;;;2.10;93.00;100952.16;4889695;29;20413;-81
2021/11/06 05:40:43;;;;;;;;;;;;;;;1.95;95.59;100947.66;4889377;29;20275;-81
2021/11/06 05:43:08;;;;;;;;;;;;;;;2.17;100.00;100956.63;4889007;29;19920;-82
2021/11/06 09:02:17;;;;;;;;;;;;;;;4.31;83.85;101038.34;4918338;23;19972;-81
2021/11/06 09:04:44;;;;;;;;;;;;;;;4.34;83.99;101035.72;4928159;29;19927;-82
2021/11/06 09:07:09;;;;;;;;;;;;;;;4.34;83.70;101034.81;4927007;29;19919;-81
2021/11/06 09:09:34;;;;;;;;;;;;;;;4.39;83.69;101038.34;4926923;29;19919;-81
2021/11/06 09:12:02;;;;;;;;;;;;;;;4.41;83.65;101038.38;4926988;29;19947;-81
2021/11/06 09:14:27;;;;;;;;;;;;;;;4.43;83.80;101037.47;4926017;29;20400;-82
2021/11/06 09:16:53;;;;;;;;;;;;;;;4.46;83.58;101034.00;4924979;29;19923;-81
2021/11/06 09:19:18;;;;;;;;;;;;;;;4.47;83.65;101031.38;4927050;29;19994;-82
2021/11/06 09:21:44;;;;;;;;;;;;;;;4.54;83.94;101033.13;4925712;29;20302;-81
2021/11/06 09:24:10;;;;;;;;;;;;;;;4.52;83.75;101045.38;4926590;29;19923;-81
2021/11/06 09:26:37;;;;;;;;;;;;;;;4.54;83.68;101043.63;4927421;29;20281;-81
2021/11/06 09:29:03;;;;;;;;;;;;;;;4.58;83.94;101041.91;4926688;29;19986;-81
2021/11/06 09:31:29;;;;;;;;;;;;;;;4.61;83.92;101039.28;4925054;29;19927;-81
2021/11/06 09:33:55;;;;;;;;;;;;;;;4.59;84.09;101045.38;4927812;29;19919;-82
2021/11/06 09:36:20;;;;;;;;;;;;;;;4.64;84.27;101043.63;4927204;29;19927;-81
2021/11/06 09:38:46;;;;;;;;;;;;;;;4.65;84.21;101043.66;4925730;29;20002;-82
2021/11/06 09:41:11;;;;;;;;;;;;;;;4.68;84.26;101040.16;4926665;29;20025;-82
2021/11/06 09:43:37;;;;;;;;;;;;;;;4.68;84.21;101037.53;4925726;29;19919;-81
2021/11/06 09:46:03;;;;;;;;;;;;;;;4.70;84.16;101036.63;4926862;29;19934;-81
2021/11/06 09:48:30;;;;;;;;;;;;;;;4.72;84.34;101039.28;4926611;29;19923;-81
2021/11/06 09:50:57;;;;;;;;;;;;;;;4.76;84.44;101043.66;4933232;29;19926;-82
2021/11/06 09:53:22;;;;;;;;;;;;;;;4.74;84.39;101050.69;4925885;29;20014;-82
2021/11/06 09:55:50;;;;;;;;;;;;;;;4.77;84.40;101049.78;4923875;29;20350;-81
2021/11/06 09:58:16;;;;;;;;;;;;;;;4.79;84.55;101043.66;4926634;29;19938;-82
2021/11/06 10:00:41;;;;;;;;;;;;;;;4.82;84.65;101043.69;4925107;29;19919;-81
2021/11/06 10:03:06;;;;;;;;;;;;;;;4.84;84.71;101044.53;4922767;29;19930;-82
2021/11/06 10:05:48;;;;;;;;;;;;;;;4.86;84.74;101042.78;4925869;29;19923;-81
2021/11/06 10:08:14;;;;;;;;;;;;;;;4.87;85.01;101041.91;4925723;29;19938;-81
2021/11/06 10:10:40;;;;;;;;;;;;;;;4.89;84.91;101040.16;4926590;29;19931;-82
2021/11/06 10:13:05;;;;;;;;;;;;;;;4.93;85.13;101037.53;4926260;29;19919;-81
2021/11/06 10:15:30;;;;;;;;;;;;;;;4.96;84.93;101042.78;4925432;29;20366;-81
2021/11/06 10:17:55;;;;;;;;;;;;;;;4.98;85.04;101043.66;4925138;29;19923;-82
2021/11/06 10:20:24;;;;;;;;;;;;;;;4.96;85.22;101034.91;4925991;29;19962;-81
2021/11/06 10:22:49;;;;;;;;;;;;;;;4.98;85.25;101027.91;4926373;29;19922;-82
2021/11/06 10:25:16;;;;;;;;;;;;;;;4.99;85.37;101025.28;4927008;29;19930;-82
2021/11/06 10:27:48;;;;;;;;;;;;;;;4.99;85.28;101020.03;4924842;29;20407;-82
2021/11/06 10:30:16;;;;;;;;;;;;;;;5.04;85.30;101014.75;4925371;29;19927;-82
2021/11/06 10:32:54;;;;;;;;;;;;;;;5.07;85.52;101013.03;4925416;29;20286;-82
2021/11/06 10:35:23;;;;;;;;;;;;;;;5.05;85.37;101013.91;4932070;29;19923;-82
2021/11/06 10:37:55;;;;;;;;;;;;;;;5.06;85.44;101010.41;4924690;29;19958;-81
2021/11/06 10:40:20;;;;;;;;;;;;;;;5.12;85.62;101010.38;4926538;29;20410;-82
2021/11/06 10:42:48;;;;;;;;;;;;;;;5.14;85.80;100999.88;4925980;29;20018;-82
2021/11/06 10:45:17;;;;;;;;;;;;;;;5.12;85.67;101002.50;4924275;29;19931;-82
2021/11/06 10:47:50;;;;;;;;;;;;;;;5.15;85.61;101010.38;4924473;29;20018;-82
2021/11/06 10:50:17;;;;;;;;;;;;;;;5.18;85.99;101005.13;4925627;29;19922;-82
2021/11/06 10:52:46;;;;;;;;;;;;;;;5.19;85.99;101006.88;4925556;29;19919;-82
2021/11/06 10:55:12;;;;;;;;;;;;;;;5.24;86.19;100999.00;4925487;29;20290;-82
2021/11/06 10:57:37;;;;;;;;;;;;;;;5.25;86.38;100985.84;4925317;29;20002;-82
2021/11/06 11:00:06;;;;;;;;;;;;;;;5.25;86.55;100985.84;4923378;29;19926;-82
2021/11/06 11:02:32;;;;;;;;;;;;;;;5.26;86.61;100981.47;4924052;29;19966;-82
2021/11/06 11:04:57;;;;;;;;;;;;;;;5.27;86.64;100984.09;4925297;29;19973;-81
2021/11/06 11:07:22;;;;;;;;;;;;;;;5.29;86.73;100986.72;4925679;29;20395;-82
2021/11/06 11:09:47;;;;;;;;;;;;;;;5.32;86.93;100985.84;4926094;29;19929;-82
2021/11/06 11:12:16;;;;;;;;;;;;;;;5.33;87.10;100980.59;4925585;29;19927;-82
2021/11/06 11:14:49;;;;;;;;;;;;;;;5.39;87.42;100982.31;4925532;29;19983;-81
2021/11/06 11:17:14;;;;;;;;;;;;;;;5.37;87.46;100984.94;4925176;29;19973;-83
2021/11/06 11:19:41;;;;;;;;;;;;;;;5.41;87.57;100980.56;4925503;29;20314;-82
2021/11/06 11:22:19;;;;;;;;;;;;;;;5.40;87.45;100974.41;4925566;29;19974;-82
2021/11/06 11:24:45;;;;;;;;;;;;;;;5.43;87.66;100974.41;4924282;29;20456;-82
2021/11/06 11:27:10;;;;;;;;;;;;;;;5.45;87.66;100967.38;4926368;29;19923;-82
2021/11/06 11:29:38;;;;;;;;;;;;;;;5.48;87.63;100965.66;4924990;29;19923;-82
2021/11/06 11:32:03;;;;;;;;;;;;;;;5.51;87.87;100963.00;4923843;29;19930;-82
2021/11/06 11:34:28;;;;;;;;;;;;;;;5.49;88.03;100957.75;4923484;29;19926;-82
2021/11/06 11:36:54;;;;;;;;;;;;;;;5.54;88.22;100950.72;4924858;29;20489;-82
2021/11/06 11:39:20;;;;;;;;;;;;;;;5.54;88.41;100955.97;4924773;29;19930;-82
2021/11/06 11:41:56;;;;;;;;;;;;;;;5.55;88.50;100952.50;4925294;29;19923;-82
2021/11/06 11:44:28;;;;;;;;;;;;;;;5.57;88.59;100948.09;4928231;29;20217;-82
2021/11/06 11:46:56;;;;;;;;;;;;;;;5.57;88.72;100940.19;4927828;29;19923;-82
2021/11/06 11:49:28;;;;;;;;;;;;;;;5.62;88.89;100930.53;4927964;29;19925;-82
2021/11/06 11:51:54;;;;;;;;;;;;;;;5.63;88.97;100932.28;4943265;29;19919;-83
2021/11/06 11:54:19;;;;;;;;;;;;;;;5.66;89.02;100922.63;4926742;29;20381;-82
2021/11/06 11:56:45;;;;;;;;;;;;;;;5.67;89.20;100925.25;4927714;29;20013;-83
2021/11/06 11:59:28;;;;;;;;;;;;;;;5.69;89.23;100922.63;4927601;29;20014;-82
2021/11/06 12:02:13;;;;;;;;;;;;;;;5.70;89.48;100911.22;4934167;29;20482;-82
2021/11/06 12:04:39;;;;;;;;;;;;;;;5.70;89.72;100909.47;4927520;29;20370;-82
2021/11/06 12:07:18;;;;;;;;;;;;;;;5.72;89.76;100914.72;4927318;29;19926;-82
2021/11/06 12:09:43;;;;;;;;;;;;;;;5.74;89.90;100918.19;4929054;29;19942;-82
2021/11/06 12:12:09;;;;;;;;;;;;;;;5.79;90.13;100906.78;4928481;29;19938;-82
2021/11/06 12:14:41;;;;;;;;;;;;;;;5.79;90.28;100901.53;4928398;29;20009;-82
2021/11/06 12:17:07;;;;;;;;;;;;;;;5.79;90.33;100898.91;4927732;29;19923;-82
2021/11/06 12:19:40;;;;;;;;;;;;;;;5.82;90.57;100898.88;4928197;29;20066;-82
2021/11/06 12:22:09;;;;;;;;;;;;;;;5.85;90.70;100895.34;4935201;29;19927;-83
2021/11/06 12:24:35;;;;;;;;;;;;;;;5.87;90.91;100896.22;4928114;29;19945;-82
2021/11/06 12:27:01;;;;;;;;;;;;;;;5.89;90.96;100899.72;4927501;29;20374;-82
2021/11/06 12:29:29;;;;;;;;;;;;;;;5.89;91.00;100896.19;4927095;29;20289;-81
2021/11/06 12:31:56;;;;;;;;;;;;;;;5.90;91.07;100896.19;4927148;29;19925;-82
2021/11/06 12:34:30;;;;;;;;;;;;;;;5.93;91.26;100887.41;4927988;29;19919;-81
2021/11/06 12:36:56;;;;;;;;;;;;;;;5.94;91.15;100889.16;4928304;29;19974;-81
2021/11/06 12:39:40;;;;;;;;;;;;;;;5.95;91.24;100881.28;4927898;29;20375;-82
2021/11/06 12:42:16;;;;;;;;;;;;;;;5.98;91.33;100883.03;4926574;29;20475;-81
2021/11/06 12:44:55;;;;;;;;;;;;;;;6.01;91.51;100877.75;4927869;29;19922;-81
2021/11/06 12:47:21;;;;;;;;;;;;;;;6.02;91.52;100871.59;4927733;29;19919;-82
2021/11/06 12:49:48;;;;;;;;;;;;;;;6.05;91.65;100870.69;4926749;29;20476;-81
2021/11/06 12:52:15;;;;;;;;;;;;;;;6.11;91.91;100861.03;4927801;29;19922;-82
2021/11/06 12:54:41;;;;;;;;;;;;;;;6.20;92.21;100867.97;4927527;29;19923;-82
2021/11/06 12:57:07;;;;;;;;;;;;;;;6.24;92.81;100859.16;4927743;29;20013;-82
2021/11/06 12:59:32;;;;;;;;;;;;;;;6.29;93.29;100857.38;4927424;29;19919;-81
2021/11/06 13:01:59;;;;;;;;;;;;;;;6.34;93.58;100860.81;4926351;29;20394;-81
2021/11/06 13:04:24;;;;;;;;;;;;;;;6.31;94.02;100849.47;4927407;29;19986;-82
2021/11/06 13:06:51;;;;;;;;;;;;;;;6.28;94.19;100852.09;4926391;29;19982;-81
2021/11/06 13:09:24;;;;;;;;;;;;;;;6.20;94.16;100846.91;4927727;29;19919;-82
2021/11/06 13:11:51;;;;;;;;;;;;;;;6.01;93.79;100840.91;4927605;29;20366;-82
2021/11/06 13:14:22;;;;;;;;;;;;;;;5.83;93.02;100847.16;4927645;29;19919;-82
2021/11/06 13:17:20;;;;;;;;;;;;;;;5.60;91.76;100842.91;4926259;29;19919;-82
2021/11/06 13:19:48;;;;;;;;;;;;;;;5.35;91.00;100839.50;4890091;29;19953;-82
2021/11/06 13:22:15;;;;;;;;;;;;;;;5.28;91.69;100827.25;4928230;29;19923;-81
2021/11/06 13:24:55;;;;;;;;;;;;;;;5.26;92.98;100835.19;4927376;29;20377;-82
2021/11/06 13:27:36;;;;;;;;;;;;;;;5.32;95.61;100830.78;4926106;29;19919;-81
2021/11/06 13:30:17;;;;;;;;;;;;;;;5.44;98.69;100822.81;4925878;29;20009;-82
2021/11/06 13:32:51;;;;;;;;;;;;;;;5.68;100.00;100831.44;4927529;29;19925;-82
2021/11/06 13:35:17;;;;;;;;;;;;;;;5.88;100.00;100826.94;4927131;29;19931;-81
2021/11/06 13:37:43;;;;;;;;;;;;;;;6.09;100.00;100825.06;4927929;29;19930;-82
2021/11/06 13:40:08;;;;;;;;;;;;;;;6.24;100.00;100824.06;4926981;29;19911;-82
2021/11/06 13:42:34;;;;;;;;;;;;;;;6.33;100.00;100816.09;4927098;29;20408;-83
2021/11/06 13:45:09;;;;;;;;;;;;;;;6.41;100.00;100806.34;4925878;29;19919;-83
2021/11/06 13:47:45;;;;;;;;;;;;;;;6.47;100.00;100803.66;4927581;29;20371;-83
2021/11/06 13:50:10;;;;;;;;;;;;;;;6.54;100.00;100804.47;4927049;29;20433;-83
2021/11/06 13:52:36;;;;;;;;;;;;;;;6.59;100.00;100807.06;4926491;29;19919;-82
2021/11/06 13:55:10;;;;;;;;;;;;;;;6.61;100.00;100795.63;4926749;29;19937;-83
2021/11/06 13:57:35;;;;;;;;;;;;;;;6.65;100.00;100802.63;4926065;29;19926;-82
2021/11/06 14:00:00;;;;;;;;;;;;;;;6.69;100.00;100793.78;4925396;29;20275;-82
2021/11/06 14:02:29;;;;;;;;;;;;;;;6.71;100.00;100789.38;4926758;29;20025;-82
2021/11/06 14:05:06;;;;;;;;;;;;;;;6.76;100.00;100784.06;4933509;29;19982;-83
2021/11/06 14:07:33;;;;;;;;;;;;;;;6.79;100.00;100781.38;4926263;29;19923;-83
2021/11/06 14:10:09;;;;;;;;;;;;;;;6.83;100.00;100784.84;4932998;29;20286;-83
2021/11/06 14:12:48;;;;;;;;;;;;;;;6.85;100.00;100773.41;4926790;29;19919;-82
2021/11/06 14:15:25;;;;;;;;;;;;;;;6.89;100.00;100782.13;4925197;29;19942;-82
2021/11/06 14:17:52;;;;;;;;;;;;;;;6.91;100.00;100770.72;4932502;29;20390;-82
2021/11/06 14:20:20;;;;;;;;;;;;;;;6.93;100.00;100765.41;4926118;29;20076;-83
2021/11/06 14:22:49;;;;;;;;;;;;;;;6.96;100.00;100760.13;4925832;29;19922;-83
2021/11/06 14:25:25;;;;;;;;;;;;;;;6.99;100.00;100760.06;4923852;29;19930;-83
2021/11/06 14:28:07;;;;;;;;;;;;;;;5.45;100.00;100761.47;4924870;29;20499;-82
2021/11/06 14:30:44;;;;;;;;;;;;;;;4.45;100.00;100754.91;4923750;29;19922;-82
2021/11/06 14:33:09;;;;;;;;;;;;;;;4.06;100.00;100756.72;4924477;29;19973;-83
2021/11/06 14:35:39;;;;;;;;;;;;;;;3.79;100.00;100747.97;4924965;29;20432;-83
2021/11/06 14:38:05;;;;;;;;;;;;;;;3.51;99.04;100754.97;4923619;29;20356;-82
2021/11/06 14:40:30;;;;;;;;;;;;;;;3.38;97.93;100751.44;4924076;29;20078;-81
2021/11/06 14:43:10;;;;;;;;;;;;;;;3.25;96.82;100745.28;4923699;29;19927;-81
2021/11/06 14:45:35;;;;;;;;;;;;;;;3.19;95.42;100744.38;4937756;28;19970;-81
2021/11/06 14:48:00;;;;;;;;;;;;;;;3.08;94.37;100741.75;4925371;29;20278;-82
2021/11/06 14:50:26;;;;;;;;;;;;;;;3.02;93.05;100742.59;4924948;29;19927;-82
2021/11/06 14:52:51;;;;;;;;;;;;;;;2.90;92.20;100737.31;4922991;29;19923;-83
2021/11/06 14:55:19;;;;;;;;;;;;;;;2.88;91.31;100731.22;4923451;29;20051;-82
2021/11/06 14:57:47;;;;;;;;;;;;;;;2.76;90.38;100734.66;4923277;29;19958;-82
2021/11/06 15:00:22;;;;;;;;;;;;;;;2.71;89.75;100728.50;4929730;29;19919;-81
2021/11/06 15:02:53;;;;;;;;;;;;;;;2.66;88.88;100722.38;4931200;29;20005;-82
2021/11/06 15:05:30;;;;;;;;;;;;;;;2.48;88.87;100728.41;4924900;29;20370;-83
2021/11/06 15:07:56;;;;;;;;;;;;;;;2.42;88.51;100725.75;4924480;29;19926;-83
2021/11/06 15:10:21;;;;;;;;;;;;;;;2.34;88.47;100726.56;4924110;29;19934;-82
2021/11/06 15:12:47;;;;;;;;;;;;;;;2.33;87.72;100730.06;4925378;28;19934;-82
2021/11/06 15:15:14;;;;;;;;;;;;;;;2.28;87.35;100726.56;4924096;29;19926;-82
2021/11/06 15:17:40;;;;;;;;;;;;;;;2.16;87.16;100729.09;4923717;29;19962;-83
2021/11/06 15:20:05;;;;;;;;;;;;;;;2.06;86.85;100733.41;4925118;29;20441;-82
2021/11/06 15:22:31;;;;;;;;;;;;;;;1.98;86.65;100725.50;4925264;28;19919;-82
2021/11/06 15:24:57;;;;;;;;;;;;;;;1.96;86.46;100723.72;4924923;29;19987;-83
2021/11/06 15:27:25;;;;;;;;;;;;;;;1.95;86.38;100724.59;4925703;29;19918;-84
2021/11/06 15:29:51;;;;;;;;;;;;;;;2.05;89.73;100720.31;4923029;29;19938;-82
2021/11/06 15:32:17;;;;;;;;;;;;;;;2.23;94.81;100723.03;4925080;29;19945;-84
2021/11/06 15:34:42;;;;;;;;;;;;;;;2.42;98.63;100723.16;4925546;29;20354;-85
2021/11/06 15:37:08;;;;;;;;;;;;;;;2.55;100.00;100722.34;4925212;29;20353;-83
2021/11/06 15:39:33;;;;;;;;;;;;;;;2.60;100.00;100722.34;4924594;29;19924;-83
2021/11/06 15:41:58;;;;;;;;;;;;;;;2.66;100.00;100720.63;4925044;29;19966;-82
2021/11/06 15:44:24;;;;;;;;;;;;;;;2.72;100.00;100720.66;4925565;29;19919;-83
2021/11/06 15:46:49;;;;;;;;;;;;;;;2.73;100.00;100717.19;4924150;29;20010;-83
2021/11/06 15:49:16;;;;;;;;;;;;;;;2.76;100.00;100716.34;4924871;29;19919;-82
2021/11/06 15:51:50;;;;;;;;;;;;;;;2.82;100.00;100718.97;4925018;29;20441;-83
2021/11/06 15:54:16;;;;;;;;;;;;;;;2.88;100.00;100721.59;4923479;29;19919;-84
2021/11/06 15:56:42;;;;;;;;;;;;;;;2.89;100.00;100722.50;4925093;29;19920;-83
2021/11/06 15:59:08;;;;;;;;;;;;;;;2.90;100.00;100724.22;4924656;29;20009;-84
2021/11/06 16:01:37;;;;;;;;;;;;;;;2.87;100.00;100725.09;4924178;29;20250;-83
2021/11/06 16:04:03;;;;;;;;;;;;;;;2.86;100.00;100717.25;4924883;29;19927;-82
2021/11/06 16:06:29;;;;;;;;;;;;;;;2.89;100.00;100714.66;4924778;29;19986;-84
2021/11/06 16:08:54;;;;;;;;;;;;;;;2.91;100.00;100719.00;4924645;29;19919;-83
2021/11/06 16:11:19;;;;;;;;;;;;;;;2.94;100.00;100715.53;4923641;29;20438;-84
2021/11/06 16:13:45;;;;;;;;;;;;;;;2.94;100.00;100722.50;4923766;29;19951;-83
2021/11/06 16:16:14;;;;;;;;;;;;;;;2.97;100.00;100718.16;4922875;29;19989;-84
2021/11/06 16:18:42;;;;;;;;;;;;;;;2.98;100.00;100714.66;4924714;29;19930;-84
2021/11/06 16:21:10;;;;;;;;;;;;;;;2.99;100.00;100715.53;4924436;29;19918;-83
2021/11/06 16:23:36;;;;;;;;;;;;;;;3.01;100.00;100721.66;4924224;29;19918;-83
2021/11/06 16:26:01;;;;;;;;;;;;;;;3.05;100.00;100726.03;4924807;29;19930;-83
2021/11/06 16:28:27;;;;;;;;;;;;;;;3.06;100.00;100723.44;4924419;29;20063;-84
2021/11/06 16:30:52;;;;;;;;;;;;;;;3.05;100.00;100719.03;4925330;29;20403;-84
2021/11/06 16:33:17;;;;;;;;;;;;;;;3.09;100.00;100720.81;4928635;29;19919;-84
2021/11/06 16:35:43;;;;;;;;;;;;;;;3.09;100.00;100719.91;4928457;29;20515;-83
2021/11/06 16:38:09;;;;;;;;;;;;;;;3.12;100.00;100716.44;4926583;29;20429;-84
2021/11/06 16:40:35;;;;;;;;;;;;;;;3.17;100.00;100718.19;4928223;29;20370;-83
2021/11/06 16:43:00;;;;;;;;;;;;;;;3.20;100.00;100712.09;4927873;29;19919;-82
2021/11/06 16:45:26;;;;;;;;;;;;;;;3.17;100.00;100715.56;4927467;29;20363;-83